createdAt,value
2017-05-11T00:00:28.384Z,1002.48
2017-05-11T00:01:28.403Z,1002.55
2017-05-11T00:02:28.422Z,1002.48
2017-05-11T00:03:28.440Z,1002.52
2017-05-11T00:04:28.463Z,1002.5
2017-05-11T00:05:28.479Z,1002.5
2017-05-11T00:06:28.498Z,1002.47
2017-05-11T00:07:28.516Z,1002.51
2017-05-11T00:08:28.535Z,1002.48
2017-05-11T00:09:28.554Z,1002.47
2017-05-11T00:10:28.574Z,1002.43
2017-05-11T00:11:28.592Z,1002.5
2017-05-11T00:12:28.610Z,1002.48
2017-05-11T00:13:28.630Z,1002.5
2017-05-11T00:14:28.647Z,1002.52
2017-05-11T00:15:28.666Z,1002.49
2017-05-11T00:16:28.686Z,1002.48
2017-05-11T00:17:28.704Z,1002.49
2017-05-11T00:18:28.722Z,1002.48
2017-05-11T00:19:28.742Z,1002.5
2017-05-11T00:20:28.761Z,1002.51
2017-05-11T00:21:28.779Z,1002.54
2017-05-11T00:22:28.798Z,1002.51
2017-05-11T00:23:28.816Z,1002.51
2017-05-11T00:24:28.836Z,1002.51
2017-05-11T00:25:28.854Z,1002.51
2017-05-11T00:27:28.893Z,1002.46
2017-05-11T00:28:28.910Z,1002.44
2017-05-11T00:29:28.929Z,1002.47
2017-05-11T00:30:28.946Z,1002.47
2017-05-11T00:31:28.967Z,1002.45
2017-05-11T00:32:28.985Z,1002.46
2017-05-11T00:33:29.002Z,1002.47
2017-05-11T00:34:29.021Z,1002.42
2017-05-11T00:35:29.041Z,1002.42
2017-05-11T00:36:29.058Z,1002.4
2017-05-11T00:37:29.077Z,1002.38
2017-05-11T00:38:29.096Z,1002.38
2017-05-11T00:39:29.114Z,1002.36
2017-05-11T00:40:29.132Z,1002.34
2017-05-11T00:41:29.151Z,1002.32
2017-05-11T00:43:29.189Z,1002.37
2017-05-11T00:44:29.206Z,1002.38
2017-05-11T00:45:29.228Z,1002.36
2017-05-11T00:46:29.243Z,1002.37
2017-05-11T00:47:29.262Z,1002.38
2017-05-11T00:48:29.280Z,1002.41
2017-05-11T00:49:29.299Z,1002.39
2017-05-11T00:50:29.318Z,1002.4
2017-05-11T00:51:29.335Z,1002.41
2017-05-11T00:52:29.354Z,1002.4
2017-05-11T00:53:29.372Z,1002.4
2017-05-11T00:54:29.391Z,1002.42
2017-05-11T00:55:29.409Z,1002.4
2017-05-11T00:56:29.428Z,1002.39
2017-05-11T00:57:29.446Z,1002.39
2017-05-11T00:59:29.483Z,1002.42
2017-05-11T01:00:29.501Z,1002.41
2017-05-11T01:01:29.520Z,1002.39
2017-05-11T01:02:29.540Z,1002.37
2017-05-11T01:03:29.557Z,1002.35
2017-05-11T01:04:29.575Z,1002.36
2017-05-11T01:05:29.594Z,1002.37
2017-05-11T01:06:29.612Z,1002.36
2017-05-11T01:07:29.630Z,1002.41
2017-05-11T01:08:29.651Z,1002.34
2017-05-11T01:09:29.666Z,1002.36
2017-05-11T01:10:29.685Z,1002.33
2017-05-11T01:11:29.703Z,1002.38
2017-05-11T01:12:29.721Z,1002.37
2017-05-11T01:13:29.739Z,1002.35
2017-05-11T01:15:29.778Z,1002.34
2017-05-11T01:16:29.794Z,1002.31
2017-05-11T01:17:29.812Z,1002.31
2017-05-11T01:18:29.830Z,1002.32
2017-05-11T01:19:29.849Z,1002.35
2017-05-11T01:20:29.867Z,1002.34
2017-05-11T01:21:29.885Z,1002.34
2017-05-11T01:22:29.904Z,1002.29
2017-05-11T01:23:29.922Z,1002.32
2017-05-11T01:24:29.939Z,1002.28
2017-05-11T01:25:29.958Z,1002.27
2017-05-11T01:26:29.976Z,1002.29
2017-05-11T01:27:29.995Z,1002.23
2017-05-11T01:28:30.013Z,1002.27
2017-05-11T01:30:30.050Z,1002.24
2017-05-11T01:31:30.067Z,1002.24
2017-05-11T01:32:30.085Z,1002.26
2017-05-11T01:33:30.103Z,1002.22
2017-05-11T01:34:30.122Z,1002.21
2017-05-11T01:35:30.139Z,1002.22
2017-05-11T01:36:30.157Z,1002.25
2017-05-11T01:37:30.176Z,1002.2
2017-05-11T01:38:30.193Z,1002.17
2017-05-11T01:39:30.211Z,1002.21
2017-05-11T01:40:30.230Z,1002.17
2017-05-11T01:41:30.248Z,1002.19
2017-05-11T01:42:30.265Z,1002.17
2017-05-11T01:43:30.283Z,1002.15
2017-05-11T01:44:30.303Z,1002.16
2017-05-11T01:45:30.320Z,1002.21
2017-05-11T01:46:30.337Z,1002.14
2017-05-11T01:47:30.356Z,1002.13
2017-05-11T01:48:30.374Z,1002.14
2017-05-11T01:49:30.392Z,1002.12
2017-05-11T01:50:30.410Z,1002.12
2017-05-11T01:51:30.428Z,1002.15
2017-05-11T01:52:30.447Z,1002.14
2017-05-11T01:53:30.464Z,1002.2
2017-05-11T01:54:30.482Z,1002.17
2017-05-11T01:55:30.499Z,1002.14
2017-05-11T01:56:30.518Z,1002.15
2017-05-11T01:57:30.535Z,1002.14
2017-05-11T01:58:30.553Z,1002.13
2017-05-11T01:59:30.571Z,1002.16
2017-05-11T02:00:30.588Z,1002.15
2017-05-11T02:02:30.624Z,1002.11
2017-05-11T02:03:30.643Z,1002.08
2017-05-11T02:04:30.661Z,1002.08
2017-05-11T02:05:30.679Z,1002.11
2017-05-11T02:06:30.696Z,1002.12
2017-05-11T02:07:30.714Z,1002.09
2017-05-11T02:08:30.731Z,1002.1
2017-05-11T02:09:30.750Z,1002.09
2017-05-11T02:10:30.768Z,1002.13
2017-05-11T02:11:30.785Z,1002.12
2017-05-11T02:12:30.802Z,1002.1
2017-05-11T02:13:30.820Z,1002.12
2017-05-11T02:14:30.839Z,1002.11
2017-05-11T02:15:30.856Z,1002.1
2017-05-11T02:16:30.874Z,1002.05
2017-05-11T02:18:30.909Z,1002.05
2017-05-11T02:19:30.926Z,1002.04
2017-05-11T02:20:30.944Z,1002.06
2017-05-11T02:21:30.963Z,1002.07
2017-05-11T02:22:30.980Z,1002.07
2017-05-11T02:23:30.997Z,1002.04
2017-05-11T02:24:31.015Z,1002.07
2017-05-11T02:25:31.069Z,1002.04
2017-05-11T02:26:31.050Z,1002.06
2017-05-11T02:27:31.069Z,1002.02
2017-05-11T02:28:31.086Z,1002.03
2017-05-11T02:29:31.104Z,1001.95
2017-05-11T02:30:31.123Z,1001.99
2017-05-11T02:31:31.139Z,1001.95
2017-05-11T02:32:31.158Z,1001.93
2017-05-11T02:34:31.193Z,1001.9
2017-05-11T02:35:31.210Z,1001.85
2017-05-11T02:36:31.229Z,1001.83
2017-05-11T02:37:31.246Z,1001.81
2017-05-11T02:38:31.262Z,1001.81
2017-05-11T02:39:31.281Z,1001.83
2017-05-11T02:40:31.299Z,1001.8
2017-05-11T02:41:31.315Z,1001.78
2017-05-11T02:42:31.333Z,1001.79
2017-05-11T02:43:31.350Z,1001.79
2017-05-11T02:44:31.367Z,1001.79
2017-05-11T02:45:31.386Z,1001.81
2017-05-11T02:46:31.404Z,1001.79
2017-05-11T02:47:31.422Z,1001.79
2017-05-11T02:48:31.438Z,1001.82
2017-05-11T02:50:31.475Z,1001.8
2017-05-11T02:51:31.493Z,1001.8
2017-05-11T02:52:31.509Z,1001.81
2017-05-11T02:53:31.528Z,1001.84
2017-05-11T02:54:31.545Z,1001.82
2017-05-11T02:55:31.562Z,1001.81
2017-05-11T02:56:31.580Z,1001.8
2017-05-11T02:57:31.598Z,1001.77
2017-05-11T02:58:31.615Z,1001.79
2017-05-11T02:59:31.633Z,1001.79
2017-05-11T03:00:31.652Z,1001.73
2017-05-11T03:01:31.668Z,1001.73
2017-05-11T03:02:31.685Z,1001.74
2017-05-11T03:03:31.703Z,1001.74
2017-05-11T03:05:31.739Z,1001.76
2017-05-11T03:06:31.756Z,1001.78
2017-05-11T03:07:31.773Z,1001.79
2017-05-11T03:08:31.791Z,1001.78
2017-05-11T03:09:31.809Z,1001.77
2017-05-11T03:10:31.825Z,1001.81
2017-05-11T03:11:31.843Z,1001.78
2017-05-11T03:12:31.861Z,1001.8
2017-05-11T03:13:31.878Z,1001.8
2017-05-11T03:14:31.896Z,1001.81
2017-05-11T03:15:31.913Z,1001.81
2017-05-11T03:16:31.931Z,1001.82
2017-05-11T03:17:31.947Z,1001.82
2017-05-11T03:18:31.965Z,1001.79
2017-05-11T03:19:31.984Z,1001.78
2017-05-11T03:20:32.001Z,1001.77
2017-05-11T03:21:32.018Z,1001.8
2017-05-11T03:22:32.035Z,1001.82
2017-05-11T03:23:32.053Z,1001.82
2017-05-11T03:24:32.070Z,1001.87
2017-05-11T03:25:32.088Z,1001.84
2017-05-11T03:26:32.105Z,1001.83
2017-05-11T03:27:32.124Z,1001.85
2017-05-11T03:28:32.140Z,1001.86
2017-05-11T03:29:32.157Z,1001.82
2017-05-11T03:30:32.176Z,1001.9
2017-05-11T03:31:32.193Z,1001.87
2017-05-11T03:32:32.210Z,1001.89
2017-05-11T03:33:32.228Z,1001.86
2017-05-11T03:34:32.245Z,1001.89
2017-05-11T03:35:32.262Z,1001.86
2017-05-11T03:37:32.298Z,1001.88
2017-05-11T03:38:32.316Z,1001.86
2017-05-11T03:39:32.332Z,1001.85
2017-05-11T03:40:32.353Z,1001.86
2017-05-11T03:41:32.368Z,1001.84
2017-05-11T03:42:32.387Z,1001.88
2017-05-11T03:43:32.404Z,1001.81
2017-05-11T03:44:32.422Z,1001.84
2017-05-11T03:45:32.440Z,1001.83
2017-05-11T03:46:32.457Z,1001.79
2017-05-11T03:47:32.474Z,1001.79
2017-05-11T03:48:32.492Z,1001.78
2017-05-11T03:49:32.511Z,1001.78
2017-05-11T03:50:32.527Z,1001.79
2017-05-11T03:51:32.545Z,1001.81
2017-05-11T03:53:32.582Z,1001.8
2017-05-11T03:54:32.599Z,1001.81
2017-05-11T03:55:32.617Z,1001.83
2017-05-11T03:56:32.636Z,1001.84
2017-05-11T03:57:32.653Z,1001.83
2017-05-11T03:58:32.671Z,1001.85
2017-05-11T03:59:32.689Z,1001.83
2017-05-11T04:00:32.708Z,1001.83
2017-05-11T04:01:32.725Z,1001.87
2017-05-11T04:02:32.743Z,1001.85
2017-05-11T04:03:32.761Z,1001.87
2017-05-11T04:04:32.780Z,1001.9
2017-05-11T04:05:32.797Z,1001.88
2017-05-11T04:06:32.816Z,1001.9
2017-05-11T04:07:32.834Z,1001.92
2017-05-11T04:09:32.870Z,1001.95
2017-05-11T04:10:32.889Z,1001.93
2017-05-11T04:11:32.908Z,1001.98
2017-05-11T04:12:32.925Z,1001.99
2017-05-11T04:13:32.944Z,1001.97
2017-05-11T04:14:32.963Z,1001.99
2017-05-11T04:15:32.981Z,1001.96
2017-05-11T04:16:32.999Z,1001.96
2017-05-11T04:17:33.017Z,1001.95
2017-05-11T04:18:33.036Z,1001.98
2017-05-11T04:19:33.055Z,1002
2017-05-11T04:20:33.073Z,1001.99
2017-05-11T04:21:33.092Z,1001.99
2017-05-11T04:22:33.111Z,1001.97
2017-05-11T04:23:33.128Z,1001.97
2017-05-11T04:25:33.166Z,1001.98
2017-05-11T04:26:33.185Z,1002.01
2017-05-11T04:27:33.203Z,1001.98
2017-05-11T04:28:33.222Z,1001.98
2017-05-11T04:29:33.241Z,1001.98
2017-05-11T04:30:33.258Z,1002.02
2017-05-11T04:31:33.279Z,1002.06
2017-05-11T04:32:33.297Z,1002.06
2017-05-11T04:33:33.316Z,1002.08
2017-05-11T04:34:33.334Z,1002.05
2017-05-11T04:35:33.353Z,1002.05
2017-05-11T04:36:33.372Z,1002.05
2017-05-11T04:37:33.392Z,1002.07
2017-05-11T04:38:33.411Z,1002.07
2017-05-11T04:40:33.448Z,1002.08
2017-05-11T04:41:33.469Z,1002.1
2017-05-11T04:42:33.485Z,1002.05
2017-05-11T04:43:33.504Z,1002.06
2017-05-11T04:44:33.523Z,1002.07
2017-05-11T04:45:33.542Z,1002.05
2017-05-11T04:46:33.561Z,1002.06
2017-05-11T04:47:33.580Z,1002.09
2017-05-11T04:48:33.602Z,1002.08
2017-05-11T04:49:33.618Z,1002.1
2017-05-11T04:50:33.637Z,1002.08
2017-05-11T04:51:33.656Z,1002.11
2017-05-11T04:52:33.674Z,1002.08
2017-05-11T04:53:33.694Z,1002.12
2017-05-11T04:54:33.713Z,1002.17
2017-05-11T04:55:33.732Z,1002.15
2017-05-11T04:56:33.751Z,1002.15
2017-05-11T04:57:33.771Z,1002.19
2017-05-11T04:58:33.790Z,1002.16
2017-05-11T04:59:33.809Z,1002.19
2017-05-11T05:00:33.828Z,1002.2
2017-05-11T05:01:33.886Z,1002.21
2017-05-11T05:02:33.873Z,1002.24
2017-05-11T05:03:33.887Z,1002.23
2017-05-11T05:04:33.907Z,1002.26
2017-05-11T05:05:33.926Z,1002.33
2017-05-11T05:06:33.946Z,1002.3
2017-05-11T05:07:33.966Z,1002.35
2017-05-11T05:08:33.986Z,1002.35
2017-05-11T05:09:34.007Z,1002.35
2017-05-11T05:10:34.026Z,1002.37
2017-05-11T05:12:34.068Z,1002.3
2017-05-11T05:13:34.089Z,1002.36
2017-05-11T05:14:34.108Z,1002.36
2017-05-11T05:15:34.129Z,1002.37
2017-05-11T05:16:34.151Z,1002.37
2017-05-11T05:17:34.173Z,1002.42
2017-05-11T05:18:34.193Z,1002.45
2017-05-11T05:19:34.214Z,1002.44
2017-05-11T05:20:34.235Z,1002.44
2017-05-11T05:21:34.257Z,1002.47
2017-05-11T05:22:34.278Z,1002.51
2017-05-11T05:23:34.300Z,1002.48
2017-05-11T05:24:34.321Z,1002.5
2017-05-11T05:25:34.343Z,1002.48
2017-05-11T05:26:34.365Z,1002.47
2017-05-11T05:28:34.411Z,1002.52
2017-05-11T05:29:34.431Z,1002.54
2017-05-11T05:30:34.454Z,1002.53
2017-05-11T05:31:34.478Z,1002.55
2017-05-11T05:32:34.499Z,1002.54
2017-05-11T05:33:34.522Z,1002.56
2017-05-11T05:34:34.545Z,1002.58
2017-05-11T05:35:34.568Z,1002.54
2017-05-11T05:36:34.590Z,1002.52
2017-05-11T05:37:34.614Z,1002.5
2017-05-11T05:38:34.637Z,1002.54
2017-05-11T05:39:34.661Z,1002.56
2017-05-11T05:40:34.721Z,1002.57
2017-05-11T05:41:34.706Z,1002.6
2017-05-11T05:42:34.729Z,1002.64
2017-05-11T05:44:34.775Z,1002.7
2017-05-11T05:45:34.798Z,1002.7
2017-05-11T05:46:34.822Z,1002.67
2017-05-11T05:47:34.845Z,1002.66
2017-05-11T05:48:34.868Z,1002.61
2017-05-11T05:49:34.892Z,1002.58
2017-05-11T05:50:34.918Z,1002.58
2017-05-11T05:51:34.938Z,1002.62
2017-05-11T05:52:34.962Z,1002.61
2017-05-11T05:53:34.986Z,1002.62
2017-05-11T05:54:35.009Z,1002.62
2017-05-11T05:55:35.032Z,1002.65
2017-05-11T05:56:35.056Z,1002.69
2017-05-11T05:57:35.080Z,1002.73
2017-05-11T05:58:35.103Z,1002.73
2017-05-11T06:00:35.152Z,1002.87
2017-05-11T06:01:35.177Z,1002.88
2017-05-11T06:02:35.199Z,1002.83
2017-05-11T06:03:35.271Z,1002.89
2017-05-11T06:04:35.248Z,1002.91
2017-05-11T06:05:35.271Z,1002.91
2017-05-11T06:06:35.296Z,1002.81
2017-05-11T06:07:35.321Z,1002.99
2017-05-11T06:08:35.346Z,1002.99
2017-05-11T06:09:35.370Z,1002.9
2017-05-11T06:10:35.394Z,1002.94
2017-05-11T06:11:35.419Z,1002.93
2017-05-11T06:12:35.445Z,1003
2017-05-11T06:13:35.470Z,1002.91
2017-05-11T06:15:35.521Z,1002.85
2017-05-11T06:16:35.546Z,1002.88
2017-05-11T06:17:35.571Z,1002.98
2017-05-11T06:18:35.598Z,1002.97
2017-05-11T06:19:35.623Z,1002.96
2017-05-11T06:20:35.648Z,1002.93
2017-05-11T06:21:35.674Z,1003.11
2017-05-11T06:22:35.700Z,1003.12
2017-05-11T06:23:35.725Z,1003.14
2017-05-11T06:24:35.752Z,1003.31
2017-05-11T06:25:35.780Z,1003.29
2017-05-11T06:26:35.806Z,1003.33
2017-05-11T06:27:35.832Z,1003.38
2017-05-11T06:28:35.860Z,1003.44
2017-05-11T06:29:35.888Z,1003.46
2017-05-11T06:30:35.915Z,1003.53
2017-05-11T06:31:35.943Z,1003.68
2017-05-11T06:32:35.971Z,1003.67
2017-05-11T06:33:35.999Z,1003.73
2017-05-11T06:34:36.028Z,1003.67
2017-05-11T06:35:36.057Z,1003.7
2017-05-11T06:36:36.086Z,1003.73
2017-05-11T06:37:36.117Z,1003.8
2017-05-11T06:38:36.145Z,1003.84
2017-05-11T06:39:36.175Z,1003.87
2017-05-11T06:40:36.206Z,1003.92
2017-05-11T06:41:36.236Z,1004.01
2017-05-11T06:42:36.266Z,1004.07
2017-05-11T06:43:36.296Z,1004.08
2017-05-11T06:44:36.328Z,1004.22
2017-05-11T06:45:36.358Z,1004.25
2017-05-11T06:47:36.422Z,1003.96
2017-05-11T06:48:36.453Z,1004.42
2017-05-11T06:49:36.484Z,1004.42
2017-05-11T06:50:36.515Z,1004.41
2017-05-11T06:51:36.548Z,1004.39
2017-05-11T06:52:36.580Z,1004.45
2017-05-11T06:53:36.611Z,1004.47
2017-05-11T06:54:36.643Z,1004.57
2017-05-11T06:55:36.677Z,1004.59
2017-05-11T06:56:36.709Z,1004.48
2017-05-11T06:57:36.741Z,1004.54
2017-05-11T06:58:36.774Z,1004.54
2017-05-11T06:59:36.807Z,1004.5
2017-05-11T07:00:36.840Z,1004.54
2017-05-11T07:01:36.872Z,1004.56
2017-05-11T07:03:36.939Z,1004.38
2017-05-11T07:04:36.973Z,1004.3
2017-05-11T07:05:37.007Z,1004.26
2017-05-11T07:06:37.040Z,1004.26
2017-05-11T07:07:37.073Z,1004.21
2017-05-11T07:08:37.107Z,1004.24
2017-05-11T07:09:37.142Z,1004.18
2017-05-11T07:10:37.175Z,1004.2
2017-05-11T07:11:37.208Z,1004.18
2017-05-11T07:12:37.243Z,1004.18
2017-05-11T07:13:37.277Z,1004.04
2017-05-11T07:14:37.312Z,1003.99
2017-05-11T07:15:37.343Z,1004.02
2017-05-11T07:16:37.377Z,1003.99
2017-05-11T07:17:37.412Z,1003.99
2017-05-11T07:19:37.479Z,1004.07
2017-05-11T07:20:37.513Z,1004.06
2017-05-11T07:21:37.549Z,1004
2017-05-11T07:22:37.582Z,1003.8
2017-05-11T07:23:37.614Z,1003.91
2017-05-11T07:24:37.649Z,1003.77
2017-05-11T07:25:37.683Z,1003.77
2017-05-11T07:26:37.718Z,1003.66
2017-05-11T07:27:37.751Z,1003.71
2017-05-11T07:28:37.785Z,1003.74
2017-05-11T07:29:37.818Z,1003.66
2017-05-11T07:30:37.852Z,1003.56
2017-05-11T07:31:37.886Z,1003.56
2017-05-11T07:32:37.922Z,1003.61
2017-05-11T07:33:37.953Z,1003.64
2017-05-11T07:35:38.021Z,1003.53
2017-05-11T07:36:38.055Z,1003.52
2017-05-11T07:37:38.089Z,1003.45
2017-05-11T07:38:38.122Z,1003.39
2017-05-11T07:39:38.155Z,1003.38
2017-05-11T07:40:38.188Z,1003.39
2017-05-11T07:41:38.222Z,1003.37
2017-05-11T07:42:38.257Z,1003.34
2017-05-11T07:43:38.291Z,1003.3
2017-05-11T07:44:38.323Z,1003.27
2017-05-11T07:45:38.356Z,1003.27
2017-05-11T07:46:38.390Z,1003.23
2017-05-11T07:47:38.424Z,1003.18
2017-05-11T07:48:38.457Z,1003.09
2017-05-11T07:50:38.524Z,1003.02
2017-05-11T07:51:38.595Z,1003.04
2017-05-11T07:52:38.590Z,1003.05
2017-05-11T07:53:38.623Z,1003.08
2017-05-11T07:54:38.656Z,1003.07
2017-05-11T07:55:38.689Z,1003.09
2017-05-11T07:56:38.722Z,1003.08
2017-05-11T07:57:38.756Z,1003.07
2017-05-11T07:58:38.787Z,1003.09
2017-05-11T07:59:38.820Z,1003.05
2017-05-11T08:00:38.854Z,1002.79
2017-05-11T08:01:38.887Z,1002.93
2017-05-11T08:02:38.919Z,1003.06
2017-05-11T08:03:38.952Z,1003.06
2017-05-11T08:04:38.985Z,1003.05
2017-05-11T08:05:39.018Z,1003.04
2017-05-11T08:06:39.049Z,1003.07
2017-05-11T08:07:39.083Z,1003.08
2017-05-11T08:08:39.116Z,1003.06
2017-05-11T08:09:39.147Z,1003.05
2017-05-11T08:10:39.180Z,1003.04
2017-05-11T08:11:39.213Z,1003.08
2017-05-11T08:12:39.246Z,1003.05
2017-05-11T08:13:39.278Z,1003.01
2017-05-11T08:14:39.311Z,1002.96
2017-05-11T08:15:39.344Z,1002.97
2017-05-11T08:16:39.376Z,1002.94
2017-05-11T08:17:39.415Z,1003.04
2017-05-11T08:18:39.442Z,1003.1
2017-05-11T08:19:39.474Z,1003.13
2017-05-11T08:20:39.507Z,1003.13
2017-05-11T08:22:39.573Z,1003.11
2017-05-11T08:23:39.606Z,1003.12
2017-05-11T08:24:39.638Z,1003.07
2017-05-11T08:25:39.675Z,1003.06
2017-05-11T08:26:39.707Z,1003.04
2017-05-11T08:27:39.738Z,1002.99
2017-05-11T08:28:39.770Z,1003.01
2017-05-11T08:29:39.804Z,1002.99
2017-05-11T08:30:39.837Z,1002.85
2017-05-11T08:31:39.870Z,1003.02
2017-05-11T08:32:39.902Z,1003.01
2017-05-11T08:33:39.937Z,1002.97
2017-05-11T08:34:39.970Z,1002.97
2017-05-11T08:35:40.004Z,1003.06
2017-05-11T08:36:40.037Z,1003.03
2017-05-11T08:38:40.105Z,1002.93
2017-05-11T08:39:40.137Z,1002.84
2017-05-11T08:40:40.174Z,1002.83
2017-05-11T08:41:40.204Z,1002.74
2017-05-11T08:42:40.237Z,1002.71
2017-05-11T08:43:40.270Z,1002.67
2017-05-11T08:44:40.304Z,1002.66
2017-05-11T08:45:40.338Z,1002.67
2017-05-11T08:46:40.372Z,1002.67
2017-05-11T08:47:40.404Z,1002.67
2017-05-11T08:48:40.437Z,1002.66
2017-05-11T08:49:40.471Z,1002.64
2017-05-11T08:50:40.504Z,1002.64
2017-05-11T08:51:40.537Z,1002.6
2017-05-11T08:52:40.571Z,1002.57
2017-05-11T08:54:40.638Z,1002.64
2017-05-11T08:55:40.671Z,1002.64
2017-05-11T08:56:40.705Z,1002.57
2017-05-11T08:57:40.737Z,1002.63
2017-05-11T08:58:40.771Z,1002.57
2017-05-11T08:59:40.807Z,1002.49
2017-05-11T09:00:40.838Z,1002.53
2017-05-11T09:01:40.871Z,1002.54
2017-05-11T09:02:40.904Z,1002.5
2017-05-11T09:03:40.938Z,1002.52
2017-05-11T09:04:40.970Z,1002.47
2017-05-11T09:05:41.004Z,1002.49
2017-05-11T09:06:41.036Z,1002.46
2017-05-11T09:07:41.069Z,1002.49
2017-05-11T09:08:41.102Z,1002.49
2017-05-11T09:10:41.167Z,1002.39
2017-05-11T09:11:41.200Z,1002.36
2017-05-11T09:12:41.232Z,1002.36
2017-05-11T09:13:41.267Z,1002.36
2017-05-11T09:14:41.299Z,1002.29
2017-05-11T09:15:41.330Z,1002.3
2017-05-11T09:16:41.364Z,1002.26
2017-05-11T09:17:41.396Z,1002.26
2017-05-11T09:18:41.428Z,1002.29
2017-05-11T09:19:41.460Z,1002.3
2017-05-11T09:20:41.494Z,1002.34
2017-05-11T09:21:41.526Z,1002.29
2017-05-11T09:22:41.559Z,1002.28
2017-05-11T09:23:41.592Z,1002.24
2017-05-11T09:25:41.660Z,1002.34
2017-05-11T09:26:41.690Z,1002.31
2017-05-11T09:27:41.722Z,1002.32
2017-05-11T09:28:41.755Z,1002.25
2017-05-11T09:29:41.787Z,1002.27
2017-05-11T09:30:41.817Z,1002.25
2017-05-11T09:31:41.852Z,1002.26
2017-05-11T09:32:41.883Z,1002.26
2017-05-11T09:33:41.914Z,1002.21
2017-05-11T09:34:41.946Z,1002.24
2017-05-11T09:35:41.978Z,1002.19
2017-05-11T09:36:42.010Z,1002.21
2017-05-11T09:37:42.041Z,1002.17
2017-05-11T09:38:42.074Z,1002.17
2017-05-11T09:39:42.106Z,1002.14
2017-05-11T09:40:42.137Z,1002.14
2017-05-11T09:41:42.168Z,1002.23
2017-05-11T09:42:42.200Z,1002.22
2017-05-11T09:43:42.232Z,1002.18
2017-05-11T09:44:42.263Z,1002.17
2017-05-11T09:45:42.294Z,1002.12
2017-05-11T09:46:42.326Z,1002.14
2017-05-11T09:47:42.357Z,1002.12
2017-05-11T09:48:42.389Z,1002.08
2017-05-11T09:49:42.419Z,1002.06
2017-05-11T09:50:42.452Z,1002.1
2017-05-11T09:51:42.482Z,1002.12
2017-05-11T09:52:42.513Z,1002.06
2017-05-11T09:53:42.544Z,1002.07
2017-05-11T09:54:42.576Z,1001.98
2017-05-11T09:55:42.606Z,1002.02
2017-05-11T09:57:42.668Z,1002.02
2017-05-11T09:58:42.701Z,1001.98
2017-05-11T09:59:42.730Z,1001.97
2017-05-11T10:00:42.761Z,1001.99
2017-05-11T10:01:42.792Z,1002.01
2017-05-11T10:02:42.823Z,1002.02
2017-05-11T10:03:42.853Z,1002
2017-05-11T10:04:42.884Z,1001.99
2017-05-11T10:05:42.915Z,1001.95
2017-05-11T10:06:42.945Z,1001.94
2017-05-11T10:07:42.976Z,1001.97
2017-05-11T10:08:43.008Z,1001.93
2017-05-11T10:09:43.039Z,1001.92
2017-05-11T10:10:43.069Z,1001.97
2017-05-11T10:11:43.100Z,1001.96
2017-05-11T10:13:43.162Z,1001.94
2017-05-11T10:14:43.191Z,1001.91
2017-05-11T10:15:43.223Z,1001.88
2017-05-11T10:16:43.253Z,1001.88
2017-05-11T10:17:43.284Z,1001.89
2017-05-11T10:18:43.314Z,1001.88
2017-05-11T10:19:43.345Z,1001.86
2017-05-11T10:20:43.375Z,1001.88
2017-05-11T10:21:43.405Z,1001.86
2017-05-11T10:22:43.435Z,1001.87
2017-05-11T10:23:43.466Z,1001.86
2017-05-11T10:24:43.496Z,1001.85
2017-05-11T10:25:43.526Z,1001.8
2017-05-11T10:26:43.557Z,1001.8
2017-05-11T10:27:43.587Z,1001.82
2017-05-11T10:29:43.647Z,1001.75
2017-05-11T10:30:43.677Z,1001.75
2017-05-11T10:31:43.706Z,1001.76
2017-05-11T10:32:43.736Z,1001.72
2017-05-11T10:33:43.765Z,1001.72
2017-05-11T10:34:43.796Z,1001.67
2017-05-11T10:35:43.827Z,1001.69
2017-05-11T10:36:43.854Z,1001.68
2017-05-11T10:37:43.884Z,1001.71
2017-05-11T10:38:43.914Z,1001.7
2017-05-11T10:39:43.944Z,1001.65
2017-05-11T10:40:43.973Z,1001.64
2017-05-11T10:41:44.002Z,1001.6
2017-05-11T10:42:44.031Z,1001.59
2017-05-11T10:43:44.059Z,1001.56
2017-05-11T10:45:44.119Z,1001.49
2017-05-11T10:46:44.148Z,1001.51
2017-05-11T10:47:44.176Z,1001.53
2017-05-11T10:48:44.205Z,1001.55
2017-05-11T10:49:44.235Z,1001.51
2017-05-11T10:50:44.262Z,1001.52
2017-05-11T10:51:44.292Z,1001.55
2017-05-11T10:52:44.326Z,1001.48
2017-05-11T10:53:44.348Z,1001.47
2017-05-11T10:54:44.376Z,1001.47
2017-05-11T10:55:44.405Z,1001.49
2017-05-11T10:56:44.434Z,1001.44
2017-05-11T10:57:44.463Z,1001.38
2017-05-11T10:58:44.492Z,1001.39
2017-05-11T11:00:44.550Z,1001.45
2017-05-11T11:01:44.577Z,1001.43
2017-05-11T11:02:44.606Z,1001.37
2017-05-11T11:03:44.633Z,1001.37
2017-05-11T11:04:44.662Z,1001.33
2017-05-11T11:05:44.690Z,1001.37
2017-05-11T11:06:44.718Z,1001.36
2017-05-11T11:07:44.746Z,1001.36
2017-05-11T11:08:44.773Z,1001.34
2017-05-11T11:09:44.801Z,1001.38
2017-05-11T11:10:44.830Z,1001.29
2017-05-11T11:11:44.858Z,1001.31
2017-05-11T11:12:44.885Z,1001.32
2017-05-11T11:13:44.913Z,1001.3
2017-05-11T11:14:44.941Z,1001.25
2017-05-11T11:15:44.970Z,1001.23
2017-05-11T11:16:44.996Z,1001.21
2017-05-11T11:17:45.024Z,1001.22
2017-05-11T11:18:45.051Z,1001.23
2017-05-11T11:19:45.077Z,1001.25
2017-05-11T11:20:45.107Z,1001.18
2017-05-11T11:21:45.134Z,1001.2
2017-05-11T11:22:45.162Z,1001.15
2017-05-11T11:23:45.188Z,1001.19
2017-05-11T11:24:45.216Z,1001.23
2017-05-11T11:25:45.244Z,1001.15
2017-05-11T11:26:45.271Z,1001.21
2017-05-11T11:27:45.299Z,1001.2
2017-05-11T11:28:45.326Z,1001.15
2017-05-11T11:29:45.353Z,1001.15
2017-05-11T11:30:45.380Z,1001.16
2017-05-11T11:32:45.434Z,1001.08
2017-05-11T11:33:45.462Z,1001.1
2017-05-11T11:34:45.489Z,1001.07
2017-05-11T11:35:45.516Z,1001.05
2017-05-11T11:36:45.543Z,1001.05
2017-05-11T11:37:45.570Z,1001.03
2017-05-11T11:38:45.596Z,1001.02
2017-05-11T11:39:45.623Z,1001.05
2017-05-11T11:40:45.651Z,1001
2017-05-11T11:41:45.677Z,1001.06
2017-05-11T11:42:45.704Z,1001.01
2017-05-11T11:43:45.732Z,1001
2017-05-11T11:44:45.759Z,1001.02
2017-05-11T11:45:45.785Z,1000.99
2017-05-11T11:46:45.812Z,1000.96
2017-05-11T11:48:45.867Z,1001.02
2017-05-11T11:49:45.893Z,1000.98
2017-05-11T11:50:45.920Z,1001.02
2017-05-11T11:51:45.950Z,1000.97
2017-05-11T11:52:45.973Z,1000.94
2017-05-11T11:53:45.999Z,1000.89
2017-05-11T11:54:46.027Z,1000.88
2017-05-11T11:55:46.054Z,1000.92
2017-05-11T11:56:46.081Z,1000.87
2017-05-11T11:57:46.108Z,1000.84
2017-05-11T11:58:46.135Z,1000.85
2017-05-11T11:59:46.178Z,1000.78
2017-05-11T12:00:46.187Z,1000.82
2017-05-11T12:01:46.214Z,1000.83
2017-05-11T12:02:46.242Z,1000.82
2017-05-11T12:04:46.296Z,1000.84
2017-05-11T12:05:46.323Z,1000.83
2017-05-11T12:06:46.350Z,1000.78
2017-05-11T12:07:46.376Z,1000.76
2017-05-11T12:08:46.403Z,1000.8
2017-05-11T12:09:46.430Z,1000.78
2017-05-11T12:10:46.458Z,1000.77
2017-05-11T12:11:46.483Z,1000.79
2017-05-11T12:12:46.510Z,1000.81
2017-05-11T12:13:46.537Z,1000.82
2017-05-11T12:14:46.563Z,1000.81
2017-05-11T12:15:46.591Z,1000.76
2017-05-11T12:16:46.618Z,1000.76
2017-05-11T12:17:46.645Z,1000.75
2017-05-11T12:18:46.671Z,1000.79
2017-05-11T12:20:46.726Z,1000.76
2017-05-11T12:21:46.756Z,1000.75
2017-05-11T12:22:46.778Z,1000.75
2017-05-11T12:23:46.806Z,1000.7
2017-05-11T12:24:46.833Z,1000.72
2017-05-11T12:25:46.859Z,1000.7
2017-05-11T12:26:46.886Z,1000.7
2017-05-11T12:27:46.913Z,1000.66
2017-05-11T12:28:46.942Z,1000.62
2017-05-11T12:29:46.966Z,1000.65
2017-05-11T12:30:46.993Z,1000.66
2017-05-11T12:31:47.020Z,1000.69
2017-05-11T12:32:47.047Z,1000.67
2017-05-11T12:33:47.074Z,1000.65
2017-05-11T12:35:47.128Z,1000.64
2017-05-11T12:36:47.155Z,1000.63
2017-05-11T12:37:47.181Z,1000.61
2017-05-11T12:38:47.209Z,1000.63
2017-05-11T12:39:47.237Z,1000.67
2017-05-11T12:40:47.260Z,1000.69
2017-05-11T12:41:47.288Z,1000.63
2017-05-11T12:42:47.315Z,1000.67
2017-05-11T12:43:47.342Z,1000.58
2017-05-11T12:44:47.368Z,1000.62
2017-05-11T12:45:47.395Z,1000.6
2017-05-11T12:46:47.422Z,1000.56
2017-05-11T12:47:47.447Z,1000.56
2017-05-11T12:48:47.475Z,1000.56